sensor_id;sensor_type;location;lat;lon;timestamp;pressure;altitude;pressure_sealevel;temperature;humidity
42411;BME280;28056;51.112;0.984;2024-03-08T00:02:15;100430.18;;;9.40;70.65
42411;BME280;28056;51.112;0.984;2024-03-08T00:04:42;100431.93;;;8.99;70.58
42411;BME280;28056;51.112;0.984;2024-03-08T00:07:09;100428.76;;;9.05;69.99
42411;BME280;28056;51.112;0.984;2024-03-08T00:09:37;100427.87;;;9.01;69.96
42411;BME280;28056;51.112;0.984;2024-03-08T00:12:04;100426.95;;;8.93;70.55
42411;BME280;28056;51.112;0.984;2024-03-08T00:14:32;100420.80;;;8.51;71.85
42411;BME280;28056;51.112;0.984;2024-03-08T00:16:59;100421.88;;;8.89;71.57
42411;BME280;28056;51.112;0.984;2024-03-08T00:19:27;100421.01;;;9.23;71.16
42411;BME280;28056;51.112;0.984;2024-03-08T00:21:54;100417.46;;;8.94;71.81
42411;BME280;28056;51.112;0.984;2024-03-08T00:24:21;100414.30;;;8.99;71.87
42411;BME280;28056;51.112;0.984;2024-03-08T00:26:49;100411.68;;;9.15;70.95
42411;BME280;28056;51.112;0.984;2024-03-08T00:29:17;100408.70;;;8.98;71.45
42411;BME280;28056;51.112;0.984;2024-03-08T00:31:44;100408.61;;;8.78;70.92
42411;BME280;28056;51.112;0.984;2024-03-08T00:34:11;100408.23;;;9.19;70.87
42411;BME280;28056;51.112;0.984;2024-03-08T00:36:38;100405.32;;;9.01;71.23
42411;BME280;28056;51.112;0.984;2024-03-08T00:39:05;100405.86;;;8.86;71.07
42411;BME280;28056;51.112;0.984;2024-03-08T00:41:33;100406.38;;;9.22;70.39
42411;BME280;28056;51.112;0.984;2024-03-08T00:44:00;100407.21;;;9.23;70.37
42411;BME280;28056;51.112;0.984;2024-03-08T00:46:28;100405.44;;;9.14;70.39
42411;BME280;28056;51.112;0.984;2024-03-08T00:48:55;100401.51;;;8.88;70.35
42411;BME280;28056;51.112;0.984;2024-03-08T00:51:22;100398.47;;;9.14;70.46
42411;BME280;28056;51.112;0.984;2024-03-08T00:53:49;100391.77;;;9.15;70.10
42411;BME280;28056;51.112;0.984;2024-03-08T00:56:17;100388.73;;;9.17;70.09
42411;BME280;28056;51.112;0.984;2024-03-08T00:58:45;100383.96;;;8.70;70.14
42411;BME280;28056;51.112;0.984;2024-03-08T01:04:46;100382.45;;;8.98;68.90
42411;BME280;28056;51.112;0.984;2024-03-08T01:07:14;100379.18;;;8.85;69.24
42411;BME280;28056;51.112;0.984;2024-03-08T01:09:41;100382.50;;;8.96;68.69
42411;BME280;28056;51.112;0.984;2024-03-08T01:12:08;100379.28;;;8.73;69.18
42411;BME280;28056;51.112;0.984;2024-03-08T01:14:35;100374.25;;;8.87;68.68
42411;BME280;28056;51.112;0.984;2024-03-08T01:17:03;100368.36;;;8.94;68.80
42411;BME280;28056;51.112;0.984;2024-03-08T01:19:30;100364.49;;;9.07;68.67
42411;BME280;28056;51.112;0.984;2024-03-08T01:21:58;100361.35;;;9.27;68.06
42411;BME280;28056;51.112;0.984;2024-03-08T01:24:24;100355.75;;;9.21;67.96
42411;BME280;28056;51.112;0.984;2024-03-08T01:26:52;100347.23;;;8.88;67.88
42411;BME280;28056;51.112;0.984;2024-03-08T01:29:19;100345.34;;;8.93;67.94
42411;BME280;28056;51.112;0.984;2024-03-08T01:31:47;100340.38;;;9.29;67.62
42411;BME280;28056;51.112;0.984;2024-03-08T01:34:14;100343.19;;;9.15;67.39
42411;BME280;28056;51.112;0.984;2024-03-08T01:36:42;100344.38;;;9.09;67.35
42411;BME280;28056;51.112;0.984;2024-03-08T01:39:09;100340.29;;;8.78;67.64
42411;BME280;28056;51.112;0.984;2024-03-08T01:41:36;100340.53;;;8.99;67.56
42411;BME280;28056;51.112;0.984;2024-03-08T01:44:04;100334.36;;;8.95;67.82
42411;BME280;28056;51.112;0.984;2024-03-08T01:46:35;100332.00;;;8.99;67.59
42411;BME280;28056;51.112;0.984;2024-03-08T01:49:02;100330.10;;;8.91;67.99
42411;BME280;28056;51.112;0.984;2024-03-08T01:51:30;100329.90;;;8.61;67.89
42411;BME280;28056;51.112;0.984;2024-03-08T01:53:58;100328.04;;;8.89;67.83
42411;BME280;28056;51.112;0.984;2024-03-08T01:56:28;100325.94;;;8.52;68.36
42411;BME280;28056;51.112;0.984;2024-03-08T01:58:56;100326.33;;;8.90;68.52
42411;BME280;28056;51.112;0.984;2024-03-08T02:01:25;100321.68;;;8.77;68.79
42411;BME280;28056;51.112;0.984;2024-03-08T02:03:52;100322.82;;;8.44;68.81
42411;BME280;28056;51.112;0.984;2024-03-08T02:06:20;100315.98;;;8.50;68.76
42411;BME280;28056;51.112;0.984;2024-03-08T02:08:48;100312.73;;;8.56;68.77
42411;BME280;28056;51.112;0.984;2024-03-08T02:11:16;100305.30;;;8.57;68.69
42411;BME280;28056;51.112;0.984;2024-03-08T02:13:43;100300.98;;;8.45;68.56
42411;BME280;28056;51.112;0.984;2024-03-08T02:16:11;100293.54;;;8.60;67.90
42411;BME280;28056;51.112;0.984;2024-03-08T02:18:38;100288.48;;;8.66;67.73
42411;BME280;28056;51.112;0.984;2024-03-08T02:21:06;100282.64;;;8.61;67.31
42411;BME280;28056;51.112;0.984;2024-03-08T02:23:33;100276.54;;;8.68;66.94
42411;BME280;28056;51.112;0.984;2024-03-08T02:26:01;100270.31;;;8.68;66.65
42411;BME280;28056;51.112;0.984;2024-03-08T02:28:33;100266.53;;;8.59;66.59
42411;BME280;28056;51.112;0.984;2024-03-08T02:31:01;100265.33;;;8.57;66.31
42411;BME280;28056;51.112;0.984;2024-03-08T02:33:28;100260.31;;;8.60;66.48
42411;BME280;28056;51.112;0.984;2024-03-08T02:35:55;100256.14;;;8.61;67.96
42411;BME280;28056;51.112;0.984;2024-03-08T02:38:23;100255.25;;;8.55;67.56
42411;BME280;28056;51.112;0.984;2024-03-08T02:40:52;100255.00;;;8.42;66.80
42411;BME280;28056;51.112;0.984;2024-03-08T02:43:21;100245.45;;;8.48;66.54
42411;BME280;28056;51.112;0.984;2024-03-08T02:45:48;100243.35;;;8.41;68.89
42411;BME280;28056;51.112;0.984;2024-03-08T02:48:16;100238.88;;;8.27;68.06
42411;BME280;28056;51.112;0.984;2024-03-08T02:50:44;100238.86;;;8.16;67.89
42411;BME280;28056;51.112;0.984;2024-03-08T02:53:12;100233.44;;;8.16;68.51
42411;BME280;28056;51.112;0.984;2024-03-08T02:55:40;100231.58;;;7.85;69.47
42411;BME280;28056;51.112;0.984;2024-03-08T02:58:09;100226.34;;;8.18;68.88
42411;BME280;28056;51.112;0.984;2024-03-08T03:00:36;100222.00;;;8.05;69.37
42411;BME280;28056;51.112;0.984;2024-03-08T03:03:04;100220.03;;;8.37;68.30
42411;BME280;28056;51.112;0.984;2024-03-08T03:05:31;100221.53;;;8.40;67.71
42411;BME280;28056;51.112;0.984;2024-03-08T03:07:58;100218.36;;;8.46;67.51
42411;BME280;28056;51.112;0.984;2024-03-08T03:10:25;100215.70;;;8.13;67.58
42411;BME280;28056;51.112;0.984;2024-03-08T03:12:53;100212.70;;;8.09;68.17
42411;BME280;28056;51.112;0.984;2024-03-08T03:15:21;100208.72;;;8.09;68.33
42411;BME280;28056;51.112;0.984;2024-03-08T03:17:49;100202.61;;;8.22;70.02
42411;BME280;28056;51.112;0.984;2024-03-08T03:20:17;100199.06;;;7.97;69.84
42411;BME280;28056;51.112;0.984;2024-03-08T03:22:45;100196.28;;;7.80;71.06
42411;BME280;28056;51.112;0.984;2024-03-08T03:25:12;100194.61;;;8.01;70.82
42411;BME280;28056;51.112;0.984;2024-03-08T03:27:39;100193.50;;;7.82;70.97
42411;BME280;28056;51.112;0.984;2024-03-08T03:30:08;100192.04;;;7.92;70.30
42411;BME280;28056;51.112;0.984;2024-03-08T03:32:36;100188.00;;;7.48;70.30
42411;BME280;28056;51.112;0.984;2024-03-08T03:35:03;100179.04;;;7.48;72.08
42411;BME280;28056;51.112;0.984;2024-03-08T03:37:31;100181.11;;;7.63;71.17
42411;BME280;28056;51.112;0.984;2024-03-08T03:39:59;100178.65;;;8.09;70.46
42411;BME280;28056;51.112;0.984;2024-03-08T03:42:26;100174.69;;;8.33;71.14
42411;BME280;28056;51.112;0.984;2024-03-08T03:44:55;100177.13;;;8.22;69.50
42411;BME280;28056;51.112;0.984;2024-03-08T03:47:22;100172.99;;;8.16;69.58
42411;BME280;28056;51.112;0.984;2024-03-08T03:49:49;100168.74;;;8.12;69.83
42411;BME280;28056;51.112;0.984;2024-03-08T03:52:16;100165.54;;;8.22;69.93
42411;BME280;28056;51.112;0.984;2024-03-08T03:54:44;100163.42;;;8.24;70.45
42411;BME280;28056;51.112;0.984;2024-03-08T03:57:11;100162.76;;;7.68;70.81
42411;BME280;28056;51.112;0.984;2024-03-08T03:59:40;100161.56;;;8.30;71.27
42411;BME280;28056;51.112;0.984;2024-03-08T04:02:08;100159.38;;;8.33;72.12
42411;BME280;28056;51.112;0.984;2024-03-08T04:04:35;100156.29;;;8.25;71.65
42411;BME280;28056;51.112;0.984;2024-03-08T04:07:02;100155.69;;;8.08;71.31
42411;BME280;28056;51.112;0.984;2024-03-08T04:09:30;100154.61;;;8.29;71.01
42411;BME280;28056;51.112;0.984;2024-03-08T04:11:57;100157.90;;;7.76;73.19
42411;BME280;28056;51.112;0.984;2024-03-08T04:14:25;100146.49;;;7.81;72.88
42411;BME280;28056;51.112;0.984;2024-03-08T04:16:52;100142.04;;;8.23;72.99
42411;BME280;28056;51.112;0.984;2024-03-08T04:19:19;100138.03;;;8.04;72.59
42411;BME280;28056;51.112;0.984;2024-03-08T04:21:47;100133.51;;;7.83;72.66
42411;BME280;28056;51.112;0.984;2024-03-08T04:24:14;100128.03;;;8.00;73.38
42411;BME280;28056;51.112;0.984;2024-03-08T04:26:42;100128.62;;;7.84;74.29
42411;BME280;28056;51.112;0.984;2024-03-08T04:29:09;100128.71;;;8.12;74.55
42411;BME280;28056;51.112;0.984;2024-03-08T04:31:37;100123.71;;;7.64;74.55
42411;BME280;28056;51.112;0.984;2024-03-08T04:34:04;100119.73;;;7.97;74.41
42411;BME280;28056;51.112;0.984;2024-03-08T04:36:32;100116.24;;;7.85;74.01
42411;BME280;28056;51.112;0.984;2024-03-08T04:39:00;100111.31;;;8.04;73.86
42411;BME280;28056;51.112;0.984;2024-03-08T04:41:27;100111.95;;;8.02;73.34
42411;BME280;28056;51.112;0.984;2024-03-08T04:43:54;100107.81;;;8.01;73.27
42411;BME280;28056;51.112;0.984;2024-03-08T04:46:21;100104.68;;;7.74;73.04
42411;BME280;28056;51.112;0.984;2024-03-08T04:48:49;100099.66;;;8.10;73.35
42411;BME280;28056;51.112;0.984;2024-03-08T04:51:16;100096.93;;;7.84;74.36
42411;BME280;28056;51.112;0.984;2024-03-08T04:53:43;100094.96;;;8.06;74.57
42411;BME280;28056;51.112;0.984;2024-03-08T04:56:11;100091.90;;;7.95;73.84
42411;BME280;28056;51.112;0.984;2024-03-08T04:58:38;100090.71;;;7.64;74.72
42411;BME280;28056;51.112;0.984;2024-03-08T05:01:06;100081.65;;;7.32;74.80
42411;BME280;28056;51.112;0.984;2024-03-08T05:03:33;100085.53;;;7.81;74.57
42411;BME280;28056;51.112;0.984;2024-03-08T05:06:01;100080.17;;;7.70;74.10
42411;BME280;28056;51.112;0.984;2024-03-08T05:08:28;100079.54;;;7.78;74.35
42411;BME280;28056;51.112;0.984;2024-03-08T05:10:56;100079.35;;;7.57;74.97
42411;BME280;28056;51.112;0.984;2024-03-08T05:13:23;100079.92;;;7.77;75.08
42411;BME280;28056;51.112;0.984;2024-03-08T05:15:50;100080.37;;;7.49;76.16
42411;BME280;28056;51.112;0.984;2024-03-08T05:18:18;100077.97;;;7.49;76.00
42411;BME280;28056;51.112;0.984;2024-03-08T05:20:45;100072.60;;;7.77;75.63
42411;BME280;28056;51.112;0.984;2024-03-08T05:23:12;100070.78;;;7.20;76.55
42411;BME280;28056;51.112;0.984;2024-03-08T05:25:39;100064.61;;;7.43;77.00
42411;BME280;28056;51.112;0.984;2024-03-08T05:28:06;100062.69;;;7.56;76.66
42411;BME280;28056;51.112;0.984;2024-03-08T05:30:33;100058.51;;;7.32;77.30
42411;BME280;28056;51.112;0.984;2024-03-08T05:33:00;100060.10;;;6.98;80.65
42411;BME280;28056;51.112;0.984;2024-03-08T05:35:28;100049.04;;;7.40;78.71
42411;BME280;28056;51.112;0.984;2024-03-08T05:37:56;100047.01;;;6.49;81.16
42411;BME280;28056;51.112;0.984;2024-03-08T05:40:23;100038.12;;;7.66;78.74
42411;BME280;28056;51.112;0.984;2024-03-08T05:42:51;100038.01;;;7.46;78.17
42411;BME280;28056;51.112;0.984;2024-03-08T05:45:18;100034.79;;;7.54;78.49
42411;BME280;28056;51.112;0.984;2024-03-08T05:47:45;100029.46;;;7.40;78.57
42411;BME280;28056;51.112;0.984;2024-03-08T05:50:13;100032.53;;;7.51;78.71
42411;BME280;28056;51.112;0.984;2024-03-08T05:52:41;100028.77;;;7.26;78.13
42411;BME280;28056;51.112;0.984;2024-03-08T05:55:08;100028.73;;;7.44;80.40
42411;BME280;28056;51.112;0.984;2024-03-08T05:57:36;100028.31;;;7.26;79.84
42411;BME280;28056;51.112;0.984;2024-03-08T06:00:04;100024.16;;;7.29;80.42
42411;BME280;28056;51.112;0.984;2024-03-08T06:02:32;100025.41;;;6.93;80.56
42411;BME280;28056;51.112;0.984;2024-03-08T06:04:59;100026.69;;;6.87;81.52
42411;BME280;28056;51.112;0.984;2024-03-08T06:07:26;100018.85;;;7.17;82.06
42411;BME280;28056;51.112;0.984;2024-03-08T06:09:54;100014.66;;;7.36;82.53
42411;BME280;28056;51.112;0.984;2024-03-08T06:12:21;100013.11;;;5.54;88.45
42411;BME280;28056;51.112;0.984;2024-03-08T06:14:48;100013.07;;;6.05;87.34
42411;BME280;28056;51.112;0.984;2024-03-08T06:17:15;100010.82;;;5.91;90.01
42411;BME280;28056;51.112;0.984;2024-03-08T06:19:43;100006.97;;;5.64;91.95
42411;BME280;28056;51.112;0.984;2024-03-08T06:22:10;100005.64;;;5.65;91.78
42411;BME280;28056;51.112;0.984;2024-03-08T06:24:38;100004.31;;;5.56;92.43
42411;BME280;28056;51.112;0.984;2024-03-08T06:27:05;99998.45;;;4.82;96.70
42411;BME280;28056;51.112;0.984;2024-03-08T06:29:33;100001.70;;;5.07;95.39
42411;BME280;28056;51.112;0.984;2024-03-08T06:32:00;99999.15;;;5.36;94.87
42411;BME280;28056;51.112;0.984;2024-03-08T06:34:28;100002.65;;;5.65;93.86
42411;BME280;28056;51.112;0.984;2024-03-08T06:36:55;99999.02;;;5.32;96.50
42411;BME280;28056;51.112;0.984;2024-03-08T06:39:22;100001.69;;;4.99;97.26
42411;BME280;28056;51.112;0.984;2024-03-08T06:41:50;100002.38;;;5.16;96.31
42411;BME280;28056;51.112;0.984;2024-03-08T06:44:17;100002.34;;;5.04;98.36
42411;BME280;28056;51.112;0.984;2024-03-08T06:46:56;100008.09;;;5.19;99.55
42411;BME280;28056;51.112;0.984;2024-03-08T06:49:23;100003.53;;;5.29;98.99
42411;BME280;28056;51.112;0.984;2024-03-08T06:51:51;100003.02;;;5.07;99.01
42411;BME280;28056;51.112;0.984;2024-03-08T06:54:18;100000.53;;;4.54;100.00
42411;BME280;28056;51.112;0.984;2024-03-08T06:56:46;100002.71;;;4.82;100.00
42411;BME280;28056;51.112;0.984;2024-03-08T06:59:13;100006.63;;;5.57;100.00
42411;BME280;28056;51.112;0.984;2024-03-08T07:01:40;100004.71;;;5.18;100.00
42411;BME280;28056;51.112;0.984;2024-03-08T07:04:12;100007.04;;;4.93;100.00
42411;BME280;28056;51.112;0.984;2024-03-08T07:06:40;100009.30;;;4.62;100.00
42411;BME280;28056;51.112;0.984;2024-03-08T07:09:08;100010.04;;;4.58;100.00
42411;BME280;28056;51.112;0.984;2024-03-08T07:11:35;100011.28;;;4.90;100.00
42411;BME280;28056;51.112;0.984;2024-03-08T07:14:02;100010.99;;;5.15;100.00
42411;BME280;28056;51.112;0.984;2024-03-08T07:16:30;100009.80;;;4.79;100.00
42411;BME280;28056;51.112;0.984;2024-03-08T07:18:57;100008.16;;;5.07;100.00
42411;BME280;28056;51.112;0.984;2024-03-08T07:21:24;100006.39;;;4.67;100.00
42411;BME280;28056;51.112;0.984;2024-03-08T07:23:51;100009.51;;;4.93;100.00
42411;BME280;28056;51.112;0.984;2024-03-08T07:26:20;100006.33;;;5.43;100.00
42411;BME280;28056;51.112;0.984;2024-03-08T07:28:47;100003.26;;;4.64;100.00
42411;BME280;28056;51.112;0.984;2024-03-08T07:31:14;100004.77;;;5.04;100.00
42411;BME280;28056;51.112;0.984;2024-03-08T07:33:41;100000.31;;;4.38;100.00
42411;BME280;28056;51.112;0.984;2024-03-08T07:36:09;100000.93;;;5.28;100.00
42411;BME280;28056;51.112;0.984;2024-03-08T07:38:36;99994.57;;;4.72;100.00
42411;BME280;28056;51.112;0.984;2024-03-08T07:41:04;99998.03;;;4.79;100.00
42411;BME280;28056;51.112;0.984;2024-03-08T07:43:31;99999.53;;;5.26;100.00
42411;BME280;28056;51.112;0.984;2024-03-08T07:45:58;99998.01;;;5.28;100.00
42411;BME280;28056;51.112;0.984;2024-03-08T07:48:25;99992.85;;;5.75;100.00
42411;BME280;28056;51.112;0.984;2024-03-08T07:50:52;99993.65;;;6.15;100.00
42411;BME280;28056;51.112;0.984;2024-03-08T07:53:20;99988.73;;;5.84;100.00
42411;BME280;28056;51.112;0.984;2024-03-08T07:55:47;99985.66;;;5.32;100.00
42411;BME280;28056;51.112;0.984;2024-03-08T07:58:19;99981.48;;;5.24;100.00
42411;BME280;28056;51.112;0.984;2024-03-08T08:00:46;99983.12;;;5.76;100.00
42411;BME280;28056;51.112;0.984;2024-03-08T08:03:13;99983.83;;;5.18;100.00
42411;BME280;28056;51.112;0.984;2024-03-08T08:05:40;99984.37;;;5.77;100.00
42411;BME280;28056;51.112;0.984;2024-03-08T08:08:08;99982.14;;;6.10;100.00
42411;BME280;28056;51.112;0.984;2024-03-08T08:10:35;99977.39;;;5.28;100.00
42411;BME280;28056;51.112;0.984;2024-03-08T08:13:03;99984.24;;;6.30;100.00
42411;BME280;28056;51.112;0.984;2024-03-08T08:15:31;99975.03;;;5.09;100.00
42411;BME280;28056;51.112;0.984;2024-03-08T08:17:58;99979.49;;;5.45;100.00
42411;BME280;28056;51.112;0.984;2024-03-08T08:20:25;99972.13;;;5.33;100.00
42411;BME280;28056;51.112;0.984;2024-03-08T08:22:53;99977.44;;;6.14;98.41
42411;BME280;28056;51.112;0.984;2024-03-08T08:25:20;99976.20;;;6.35;98.72
42411;BME280;28056;51.112;0.984;2024-03-08T08:27:48;99966.16;;;5.53;99.08
42411;BME280;28056;51.112;0.984;2024-03-08T08:30:15;99971.78;;;5.64;98.43
42411;BME280;28056;51.112;0.984;2024-03-08T08:32:42;99970.54;;;6.00;98.65
42411;BME280;28056;51.112;0.984;2024-03-08T08:35:10;99972.40;;;6.29;95.11
42411;BME280;28056;51.112;0.984;2024-03-08T08:37:39;99964.43;;;6.15;95.20
42411;BME280;28056;51.112;0.984;2024-03-08T08:40:07;99957.24;;;6.33;96.38
42411;BME280;28056;51.112;0.984;2024-03-08T08:42:35;99952.32;;;5.48;98.96
42411;BME280;28056;51.112;0.984;2024-03-08T08:45:04;99953.19;;;5.50;100.00
42411;BME280;28056;51.112;0.984;2024-03-08T08:47:32;99951.90;;;6.15;100.00
42411;BME280;28056;51.112;0.984;2024-03-08T08:49:59;99947.35;;;6.33;98.39
42411;BME280;28056;51.112;0.984;2024-03-08T08:52:26;99948.79;;;6.13;97.40
42411;BME280;28056;51.112;0.984;2024-03-08T08:54:54;99945.95;;;6.41;98.34
42411;BME280;28056;51.112;0.984;2024-03-08T08:57:22;99937.98;;;6.97;97.13
42411;BME280;28056;51.112;0.984;2024-03-08T08:59:49;99938.59;;;6.25;100.00
42411;BME280;28056;51.112;0.984;2024-03-08T09:02:17;99929.37;;;6.58;97.66
42411;BME280;28056;51.112;0.984;2024-03-08T09:04:44;99925.42;;;6.64;97.68
42411;BME280;28056;51.112;0.984;2024-03-08T09:07:12;99925.57;;;7.11;96.46
42411;BME280;28056;51.112;0.984;2024-03-08T09:09:38;99921.22;;;7.50;93.98
42411;BME280;28056;51.112;0.984;2024-03-08T09:12:06;99918.03;;;7.36;95.28
42411;BME280;28056;51.112;0.984;2024-03-08T09:14:33;99915.98;;;8.61;88.35
42411;BME280;28056;51.112;0.984;2024-03-08T09:17:01;99911.78;;;7.42;93.62
42411;BME280;28056;51.112;0.984;2024-03-08T09:19:28;99910.23;;;8.10;87.55
42411;BME280;28056;51.112;0.984;2024-03-08T09:21:55;99906.24;;;7.92;89.55
42411;BME280;28056;51.112;0.984;2024-03-08T09:24:22;99898.26;;;7.96;90.02
42411;BME280;28056;51.112;0.984;2024-03-08T09:26:50;99893.41;;;8.38;86.13
42411;BME280;28056;51.112;0.984;2024-03-08T09:29:17;99890.36;;;8.93;84.23
42411;BME280;28056;51.112;0.984;2024-03-08T09:31:51;99884.46;;;8.19;84.72
42411;BME280;28056;51.112;0.984;2024-03-08T09:34:21;99879.20;;;8.51;85.87
42411;BME280;28056;51.112;0.984;2024-03-08T09:36:49;99869.95;;;8.48;85.08
42411;BME280;28056;51.112;0.984;2024-03-08T09:39:16;99868.52;;;7.58;84.46
42411;BME280;28056;51.112;0.984;2024-03-08T09:41:48;99860.99;;;8.72;83.03
42411;BME280;28056;51.112;0.984;2024-03-08T09:44:18;99853.41;;;9.02;85.31
42411;BME280;28056;51.112;0.984;2024-03-08T09:46:46;99850.14;;;9.39;81.58
42411;BME280;28056;51.112;0.984;2024-03-08T09:49:14;99849.06;;;9.09;82.89
42411;BME280;28056;51.112;0.984;2024-03-08T09:51:41;99844.50;;;9.45;76.99
42411;BME280;28056;51.112;0.984;2024-03-08T09:54:08;99837.25;;;8.93;80.26
42411;BME280;28056;51.112;0.984;2024-03-08T09:56:36;99836.68;;;8.90;80.31
42411;BME280;28056;51.112;0.984;2024-03-08T09:59:04;99824.58;;;8.24;82.79
42411;BME280;28056;51.112;0.984;2024-03-08T10:01:32;99828.92;;;8.73;82.42
42411;BME280;28056;51.112;0.984;2024-03-08T10:03:59;99828.07;;;9.55;76.79
42411;BME280;28056;51.112;0.984;2024-03-08T10:06:26;99818.11;;;9.77;81.03
42411;BME280;28056;51.112;0.984;2024-03-08T10:08:53;99812.52;;;9.53;74.89
42411;BME280;28056;51.112;0.984;2024-03-08T10:11:21;99805.99;;;10.84;74.37
42411;BME280;28056;51.112;0.984;2024-03-08T10:13:48;99796.70;;;9.66;71.15
42411;BME280;28056;51.112;0.984;2024-03-08T10:16:17;99787.14;;;10.77;70.59
42411;BME280;28056;51.112;0.984;2024-03-08T10:18:45;99778.98;;;9.85;73.59
42411;BME280;28056;51.112;0.984;2024-03-08T10:21:13;99772.12;;;10.81;72.06
42411;BME280;28056;51.112;0.984;2024-03-08T10:23:40;99770.50;;;11.67;72.12
42411;BME280;28056;51.112;0.984;2024-03-08T10:26:10;99763.35;;;10.77;64.81
42411;BME280;28056;51.112;0.984;2024-03-08T10:28:38;99764.11;;;10.74;69.97
42411;BME280;28056;51.112;0.984;2024-03-08T10:31:06;99761.01;;;10.83;66.68
42411;BME280;28056;51.112;0.984;2024-03-08T10:33:34;99759.98;;;11.85;71.41
42411;BME280;28056;51.112;0.984;2024-03-08T10:36:01;99752.69;;;11.38;69.36
42411;BME280;28056;51.112;0.984;2024-03-08T10:38:31;99754.14;;;11.84;72.26
42411;BME280;28056;51.112;0.984;2024-03-08T10:40:59;99749.04;;;12.20;64.59
42411;BME280;28056;51.112;0.984;2024-03-08T10:43:28;99739.96;;;12.18;63.17
42411;BME280;28056;51.112;0.984;2024-03-08T10:46:10;99736.09;;;10.93;67.38
42411;BME280;28056;51.112;0.984;2024-03-08T10:48:45;99727.84;;;11.02;62.04
42411;BME280;28056;51.112;0.984;2024-03-08T10:51:17;99725.70;;;11.66;62.52
42411;BME280;28056;51.112;0.984;2024-03-08T10:53:48;99719.78;;;11.86;62.31
42411;BME280;28056;51.112;0.984;2024-03-08T10:56:15;99717.49;;;12.57;60.73
42411;BME280;28056;51.112;0.984;2024-03-08T10:58:43;99706.95;;;12.43;61.15
42411;BME280;28056;51.112;0.984;2024-03-08T11:01:11;99706.97;;;12.28;63.56
42411;BME280;28056;51.112;0.984;2024-03-08T11:03:46;99698.94;;;12.60;62.91
42411;BME280;28056;51.112;0.984;2024-03-08T11:06:16;99691.60;;;12.50;60.09
42411;BME280;28056;51.112;0.984;2024-03-08T11:08:44;99688.64;;;12.40;62.98
42411;BME280;28056;51.112;0.984;2024-03-08T11:11:29;99684.69;;;12.60;60.84
42411;BME280;28056;51.112;0.984;2024-03-08T11:14:02;99686.44;;;12.64;64.64
42411;BME280;28056;51.112;0.984;2024-03-08T11:16:39;99680.43;;;12.53;60.33
42411;BME280;28056;51.112;0.984;2024-03-08T11:19:24;99678.04;;;12.63;63.62
42411;BME280;28056;51.112;0.984;2024-03-08T11:22:00;99681.46;;;13.44;57.95
42411;BME280;28056;51.112;0.984;2024-03-08T11:24:37;99678.40;;;12.26;59.69
42411;BME280;28056;51.112;0.984;2024-03-08T11:27:04;99670.98;;;12.44;57.98
42411;BME280;28056;51.112;0.984;2024-03-08T11:29:34;99669.60;;;12.13;61.62
42411;BME280;28056;51.112;0.984;2024-03-08T11:32:04;99665.62;;;12.98;61.30
42411;BME280;28056;51.112;0.984;2024-03-08T11:34:37;99663.99;;;12.45;59.01
42411;BME280;28056;51.112;0.984;2024-03-08T11:37:05;99665.21;;;12.90;59.92
42411;BME280;28056;51.112;0.984;2024-03-08T11:39:33;99661.97;;;12.52;57.20
42411;BME280;28056;51.112;0.984;2024-03-08T11:42:01;99662.43;;;12.92;58.45
42411;BME280;28056;51.112;0.984;2024-03-08T11:44:30;99661.17;;;12.23;56.08
42411;BME280;28056;51.112;0.984;2024-03-08T11:46:58;99665.85;;;13.78;60.60
42411;BME280;28056;51.112;0.984;2024-03-08T11:49:25;99658.22;;;13.63;54.76
42411;BME280;28056;51.112;0.984;2024-03-08T11:51:53;99650.87;;;14.22;57.74
42411;BME280;28056;51.112;0.984;2024-03-08T11:54:21;99647.34;;;14.67;56.69
42411;BME280;28056;51.112;0.984;2024-03-08T11:56:52;99646.73;;;14.73;59.38
42411;BME280;28056;51.112;0.984;2024-03-08T11:59:20;99639.23;;;14.37;53.55
42411;BME280;28056;51.112;0.984;2024-03-08T12:01:59;99636.88;;;15.03;51.80
42411;BME280;28056;51.112;0.984;2024-03-08T12:04:26;99637.84;;;14.70;52.50
42411;BME280;28056;51.112;0.984;2024-03-08T12:06:54;99632.32;;;14.41;57.35
42411;BME280;28056;51.112;0.984;2024-03-08T12:09:22;99628.70;;;15.24;51.72
42411;BME280;28056;51.112;0.984;2024-03-08T12:11:49;99623.48;;;15.14;50.39
42411;BME280;28056;51.112;0.984;2024-03-08T12:14:16;99618.57;;;14.74;51.87
42411;BME280;28056;51.112;0.984;2024-03-08T12:16:44;99618.99;;;15.82;55.67
42411;BME280;28056;51.112;0.984;2024-03-08T12:19:12;99615.38;;;16.78;50.80
42411;BME280;28056;51.112;0.984;2024-03-08T12:21:39;99609.80;;;15.63;52.58
42411;BME280;28056;51.112;0.984;2024-03-08T12:24:08;99610.33;;;15.22;48.86
42411;BME280;28056;51.112;0.984;2024-03-08T12:26:36;99603.74;;;15.01;49.81
42411;BME280;28056;51.112;0.984;2024-03-08T12:29:21;99604.64;;;15.57;47.88
42411;BME280;28056;51.112;0.984;2024-03-08T12:31:52;99593.55;;;14.95;52.81
42411;BME280;28056;51.112;0.984;2024-03-08T12:34:19;99587.57;;;14.88;50.48
42411;BME280;28056;51.112;0.984;2024-03-08T12:36:48;99579.54;;;15.45;47.39
42411;BME280;28056;51.112;0.984;2024-03-08T12:39:17;99587.12;;;16.63;50.07
42411;BME280;28056;51.112;0.984;2024-03-08T12:41:45;99574.33;;;16.65;46.58
42411;BME280;28056;51.112;0.984;2024-03-08T12:44:12;99571.01;;;15.87;45.56
42411;BME280;28056;51.112;0.984;2024-03-08T12:46:40;99570.58;;;14.77;46.85
42411;BME280;28056;51.112;0.984;2024-03-08T12:49:08;99571.38;;;16.53;46.46
42411;BME280;28056;51.112;0.984;2024-03-08T12:51:36;99566.44;;;16.76;47.87
42411;BME280;28056;51.112;0.984;2024-03-08T12:54:04;99564.77;;;15.74;46.90
42411;BME280;28056;51.112;0.984;2024-03-08T12:56:33;99567.80;;;17.07;46.41
42411;BME280;28056;51.112;0.984;2024-03-08T12:59:00;99559.86;;;15.93;47.66
42411;BME280;28056;51.112;0.984;2024-03-08T13:01:29;99565.03;;;16.30;46.85
42411;BME280;28056;51.112;0.984;2024-03-08T13:03:56;99556.55;;;16.16;44.07
42411;BME280;28056;51.112;0.984;2024-03-08T13:06:23;99555.88;;;16.95;45.27
42411;BME280;28056;51.112;0.984;2024-03-08T13:08:56;99550.76;;;17.33;48.74